LFBT Airport Information

Runway Information
Runway 02 Length 9843 ft width 148 ft
Elevation 1238 ft Threshold 2199 ft Heading 20
Runway 20 Length 9843 ft Width 148 ft
Elevation 1170 ft Threshold 0 ft Heading 200
Airport Frequencies
Type APP Name APP Frequency 120.3 MHZ
Type APP Name PYRENEES A Frequency 121.175 MHZ
Type ATIS Name ATIS Frequency 125.95 MHZ
Type GND Name GND Frequency 121.8 MHZ
Type TWR Name TWR Frequency 119.05 MHZ
Airport Navaids
Type VOR Name Lahitte Frequency 111800 KHZ
Type VOR Name Tarbes Frequency 113900 KHZ
Type NDB Name Tarbes Frequency 321 KHZ
Airport Weather Information & NOTAM
ADDS - METARS form results

(1110 UTC 29 May 2020)
Data provider http://aviationweather.gov/metar/data/
 
METAR text: LFBT 291100Z AUTO 33005KT 260V050 CAVOK 27/13 Q1017
Conditions at: LFBT (TARBES/OSSUN , FR) observed 1100 UTC 29 May 2020
Temperature: 27.0°C (81°F)
Dewpoint: 13.0°C (55°F) [RH = 42%]
Pressure (altimeter): 30.03 inches Hg (1017.0 mb)
Winds: from the NNW (330 degrees) at 6 MPH (5 knots; 2.6 m/s)
Visibility: 6 or more miles (10+ km)
Ceiling: ceiling and visibility are OK
Clouds: unknown
Weather: no significant weather observed at this time

METAR text: LFBT 291030Z AUTO VRB04KT CAVOK 27/13 Q1017
Conditions at: LFBT (TARBES/OSSUN , FR) observed 1030 UTC 29 May 2020
Temperature: 27.0°C (81°F)
Dewpoint: 13.0°C (55°F) [RH = 42%]
Pressure (altimeter): 30.03 inches Hg (1017.0 mb)
Winds: variable direction winds at 5 MPH (4 knots; 2.1 m/s)
Visibility: 6 or more miles (10+ km)
Ceiling: ceiling and visibility are OK
Clouds: unknown
Weather: no significant weather observed at this time